Time;durP1;ratioP1;P1;durP2;ratioP2;P2;SDS_P1;SDS_P2;PMS_P1;PMS_P2;Temp;Humidity;BMP_temperature;BMP_pressure;BME280_temperature;BME280_humidity;BME280_pressure;Samples;Min_cycle;Max_cycle;Signal;HPM_P1;HPM_P2
2021/12/05 00:24:19;;;;;;;29.80;14.55;;;;;;;-0.57;98.46;97670.13;4500649;31;20563;-72
2021/12/05 00:26:52;;;;;;;31.87;13.35;;;;;;;-0.57;98.39;97667.56;4501142;31;20434;-72
2021/12/05 00:29:28;;;;;;;30.83;13.90;;;;;;;-0.58;98.95;97675.38;4500673;31;20470;-72
2021/12/05 00:32:02;;;;;;;30.55;12.32;;;;;;;-0.50;98.71;97672.31;4500856;31;20452;-72
2021/12/05 00:54:22;;;;;;;31.40;14.27;;;;;;;-0.48;99.38;97661.03;4500694;31;20112;-72
2021/12/05 00:59:33;;;;;;;30.50;12.80;;;;;;;-0.42;99.64;97670.13;4500399;31;20142;-72
2021/12/05 01:15:32;;;;;;;30.65;13.98;;;;;;;-0.43;100.00;97658.97;4500187;31;20115;-72
2021/12/05 01:18:05;;;;;;;30.42;14.50;;;;;;;-0.45;100.00;97654.88;4500169;31;20096;-72
2021/12/05 01:20:39;;;;;;;34.58;15.57;;;;;;;-0.42;100.00;97654.69;4500466;31;20089;-72
2021/12/05 01:29:07;;;;;;;31.08;13.50;;;;;;;-0.65;100.00;97648.38;4499877;31;20085;-72
2021/12/05 02:08:54;;;;;;;33.92;14.68;;;;;;;-0.99;100.00;97630.69;4419144;32;20518;-72
2021/12/05 02:31:00;;;;;;;40.40;17.58;;;;;;;-0.85;100.00;97596.41;4406061;32;20530;-72
2021/12/05 02:41:22;;;;;;;45.22;18.35;;;;;;;-0.81;100.00;97597.06;4513321;31;20093;-72
2021/12/05 02:44:05;;;;;;;37.15;17.17;;;;;;;-0.87;100.00;97597.44;4513443;31;20117;-72
2021/12/05 02:46:33;;;;;;;44.03;17.62;;;;;;;-0.78;100.00;97594.31;4511772;31;20204;-72
2021/12/05 02:49:04;;;;;;;39.03;19.60;;;;;;;-0.69;100.00;97595.50;4512624;31;20148;-72
2021/12/05 02:51:33;;;;;;;42.20;18.42;;;;;;;-0.83;100.00;97586.88;4512768;31;20140;-72
2021/12/05 02:56:32;;;;;;;43.90;18.52;;;;;;;-0.71;100.00;97593.00;4513105;31;20091;-72
2021/12/05 02:59:07;;;;;;;41.13;18.80;;;;;;;-0.65;100.00;97602.06;4512746;31;20156;-72
2021/12/05 03:01:42;;;;;;;47.35;19.30;;;;;;;-0.69;100.00;97604.03;4512857;31;20140;-72
2021/12/05 03:04:10;;;;;;;40.38;18.73;;;;;;;-0.69;100.00;97611.75;4513061;31;20088;-72
2021/12/05 03:06:49;;;;;;;49.17;20.25;;;;;;;-0.76;100.00;97610.47;4512969;31;20159;-72
2021/12/05 03:09:19;;;;;;;52.10;20.40;;;;;;;-0.71;100.00;97595.59;4512984;31;20114;-72
2021/12/05 03:11:47;;;;;;;49.75;19.27;;;;;;;-0.64;100.00;97607.13;4512766;31;20107;-72
2021/12/05 03:14:16;;;;;;;49.50;20.50;;;;;;;-0.62;100.00;97607.87;4512679;31;20122;-72
2021/12/05 03:16:45;;;;;;;43.78;20.12;;;;;;;-0.60;100.00;97608.59;4512493;31;20103;-72
2021/12/05 03:19:13;;;;;;;43.65;20.58;;;;;;;-0.42;100.00;97608.37;4512438;31;20118;-72
2021/12/05 03:21:42;;;;;;;50.03;20.08;;;;;;;-0.47;100.00;97593.22;4512426;31;20449;-72
2021/12/05 03:24:11;;;;;;;42.35;19.12;;;;;;;-0.42;100.00;97588.59;4512376;31;20092;-72
2021/12/05 03:26:41;;;;;;;48.70;19.98;;;;;;;-0.41;100.00;97600.56;4512594;31;20126;-72
2021/12/05 03:29:11;;;;;;;45.65;19.50;;;;;;;-0.47;100.00;97615.53;4512493;31;20107;-72
2021/12/05 03:31:42;;;;;;;44.30;20.20;;;;;;;-0.46;100.00;97619.75;4512686;31;20088;-72
2021/12/05 03:34:11;;;;;;;45.00;19.67;;;;;;;-0.44;100.00;97617.91;4512751;31;20123;-72
2021/12/05 03:36:40;;;;;;;45.05;20.30;;;;;;;-0.46;100.00;97619.75;4512553;31;20531;-72
2021/12/05 03:39:08;;;;;;;42.95;20.27;;;;;;;-0.47;100.00;97616.37;4512361;31;20159;-72
2021/12/05 03:41:37;;;;;;;42.22;18.73;;;;;;;-0.47;100.00;97611.22;4512679;31;20106;-72
2021/12/05 03:44:07;;;;;;;47.47;20.30;;;;;;;-0.39;100.00;97610.75;4505285;31;20111;-72
2021/12/05 03:46:34;;;;;;;45.12;19.87;;;;;;;-0.46;100.00;97600.00;4501730;31;20107;-72
2021/12/05 03:49:07;;;;;;;46.53;20.33;;;;;;;-0.46;100.00;97612.03;4501929;31;20198;-72
2021/12/05 03:51:38;;;;;;;42.93;19.07;;;;;;;-0.47;100.00;97600.94;4502012;31;20540;-72
2021/12/05 03:54:06;;;;;;;44.03;18.95;;;;;;;-0.49;100.00;97602.75;4501658;31;20194;-72
2021/12/05 03:56:35;;;;;;;46.85;19.73;;;;;;;-0.41;100.00;97599.69;4501987;31;20163;-72
2021/12/05 03:59:06;;;;;;;43.28;20.42;;;;;;;-0.40;100.00;97609.09;4501874;31;20434;-72
2021/12/05 04:01:33;;;;;;;40.70;19.10;;;;;;;-0.48;100.00;97606.19;4501743;31;20096;-72
2021/12/05 04:04:01;;;;;;;42.05;19.70;;;;;;;-0.49;100.00;97596.81;4501674;31;20481;-72
2021/12/05 04:06:29;;;;;;;47.67;20.30;;;;;;;-0.52;100.00;97605.53;4502171;31;20108;-72
2021/12/05 04:08:58;;;;;;;50.88;21.48;;;;;;;-0.47;100.00;97615.53;4502003;31;20095;-72
2021/12/05 04:11:36;;;;;;;47.20;21.80;;;;;;;-0.47;100.00;97610.38;4501813;31;20494;-72
2021/12/05 04:14:06;;;;;;;45.92;20.35;;;;;;;-0.50;100.00;97605.44;4501675;31;20413;-72
2021/12/05 04:16:35;;;;;;;46.45;20.02;;;;;;;-0.41;100.00;97604.84;4501613;31;20496;-72
2021/12/05 04:19:03;;;;;;;48.38;20.17;;;;;;;-0.45;100.00;97604.22;4501583;31;20088;-72
2021/12/05 04:21:31;;;;;;;42.62;19.60;;;;;;;-0.39;100.00;97608.16;4501629;31;20114;-72
2021/12/05 04:24:00;;;;;;;43.33;20.00;;;;;;;-0.48;100.00;97608.75;4501393;31;20126;-72
2021/12/05 04:26:27;;;;;;;41.58;20.05;;;;;;;-0.38;100.00;97610.66;4501907;31;20103;-72
2021/12/05 04:28:55;;;;;;;42.50;20.08;;;;;;;-0.30;100.00;97617.03;4501464;31;20100;-72
2021/12/05 04:31:22;;;;;;;43.22;20.08;;;;;;;-0.31;100.00;97610.25;4501559;31;20118;-72
2021/12/05 04:33:51;;;;;;;46.37;20.33;;;;;;;-0.27;100.00;97609.97;4501724;31;20083;-72
2021/12/05 04:36:19;;;;;;;42.38;19.35;;;;;;;-0.23;100.00;97619.16;4501753;31;20100;-72
2021/12/05 04:38:48;;;;;;;44.55;19.30;;;;;;;-0.19;100.00;97614.63;4501637;31;20449;-72
2021/12/05 04:41:17;;;;;;;42.85;19.73;;;;;;;-0.06;100.00;97610.34;4501487;31;20421;-72
2021/12/05 04:43:47;;;;;;;51.05;21.10;;;;;;;-0.05;100.00;97606.00;4501685;31;20392;-72
2021/12/05 04:46:18;;;;;;;45.95;18.42;;;;;;;-0.12;100.00;97600.44;4501567;31;20436;-72
2021/12/05 04:48:48;;;;;;;42.35;19.23;;;;;;;-0.12;100.00;97594.44;4501484;31;20151;-72
2021/12/05 04:51:16;;;;;;;45.22;20.90;;;;;;;-0.28;100.00;97595.44;4501538;31;20197;-72
2021/12/05 04:53:44;;;;;;;45.22;18.08;;;;;;;-0.27;100.00;97602.25;4501115;31;20088;-72
2021/12/05 04:56:12;;;;;;;44.55;20.50;;;;;;;-0.20;100.00;97592.37;4500372;31;20158;-72
2021/12/05 04:58:39;;;;;;;43.28;18.25;;;;;;;-0.12;100.00;97602.16;4501176;31;20088;-72
2021/12/05 05:01:06;;;;;;;48.45;19.52;;;;;;;-0.13;100.00;97601.34;4501529;31;20088;-72
2021/12/05 05:03:34;;;;;;;46.25;19.35;;;;;;;-0.38;100.00;97607.22;4501303;31;20164;-72
2021/12/05 05:06:08;;;;;;;45.20;18.83;;;;;;;-0.30;100.00;97599.00;4501229;31;20449;-72
2021/12/05 05:08:35;;;;;;;45.08;19.62;;;;;;;-0.25;100.00;97589.28;4501297;31;20114;-72
2021/12/05 05:11:05;;;;;;;43.60;18.50;;;;;;;-0.28;100.00;97600.56;4501499;31;20139;-72
2021/12/05 05:13:34;;;;;;;51.20;20.12;;;;;;;-0.27;100.00;97615.09;4501323;31;20110;-72
2021/12/05 05:16:04;;;;;;;45.30;18.45;;;;;;;-0.16;100.00;97605.88;4501243;31;20107;-72
2021/12/05 05:46:17;;;;;;;89.82;24.35;;;;;;;-0.44;100.00;97610.19;4467054;32;20089;-72
2021/12/05 05:49:13;;;;;;;98.75;23.62;;;;;;;-0.37;100.00;97612.28;4466878;32;20489;-72
2021/12/05 05:51:42;;;;;;;98.85;21.83;;;;;;;-0.25;100.00;97600.37;4467212;32;20644;-72
2021/12/05 05:54:10;;;;;;;110.22;22.65;;;;;;;-0.34;100.00;97606.13;4466616;32;20235;-72
2021/12/05 05:56:39;;;;;;;83.12;22.50;;;;;;;-0.32;100.00;97611.97;4466839;32;20128;-72
2021/12/05 05:59:21;;;;;;;96.70;26.02;;;;;;;-0.34;100.00;97621.56;4467003;32;20100;-72
2021/12/05 06:04:16;;;;;;;78.10;24.20;;;;;;;-0.21;100.00;97627.59;4466745;32;20089;-72
2021/12/05 06:06:48;;;;;;;74.35;21.23;;;;;;;-0.33;100.00;97622.37;4466586;32;20529;-72
2021/12/05 06:09:15;;;;;;;99.28;24.15;;;;;;;-0.20;100.00;97634.38;4466705;32;20126;-72
2021/12/05 06:11:43;;;;;;;107.35;22.65;;;;;;;-0.11;100.00;97632.13;4466875;32;20123;-72
2021/12/05 06:14:10;;;;;;;140.30;24.90;;;;;;;-0.28;100.00;97623.75;4466624;32;20154;-72
2021/12/05 06:16:37;;;;;;;117.55;23.77;;;;;;;-0.28;100.00;97625.50;4466616;32;20101;-72
2021/12/05 06:19:04;;;;;;;96.40;23.65;;;;;;;-0.26;100.00;97628.78;4470182;31;20126;-72
2021/12/05 06:21:31;;;;;;;97.25;24.50;;;;;;;-0.14;100.00;97637.47;4500550;31;20092;-72
2021/12/05 06:23:58;;;;;;;100.87;24.52;;;;;;;-0.19;100.00;97636.03;4500423;31;20207;-72
2021/12/05 06:26:26;;;;;;;96.87;24.80;;;;;;;-0.21;100.00;97640.44;4500551;31;20171;-72
2021/12/05 06:29:20;;;;;;;106.47;23.50;;;;;;;-0.26;100.00;97642.50;4500642;31;20118;-72
2021/12/05 06:32:39;;;;;;;146.75;28.00;;;;;;;-0.15;100.00;97636.66;4500217;31;20143;-72
2021/12/05 06:42:56;;;;;;;129.45;26.33;;;;;;;-0.07;100.00;97623.31;4500496;31;20158;-72
2021/12/05 06:48:09;;;;;;;80.85;26.58;;;;;;;0.03;100.00;97636.41;4500064;31;20105;-72
2021/12/05 06:50:37;;;;;;;85.10;28.25;;;;;;;0.08;100.00;97642.91;4500061;31;20096;-72
2021/12/05 06:53:06;;;;;;;100.00;26.23;;;;;;;0.06;100.00;97654.22;4500061;31;20107;-72
2021/12/05 06:55:34;;;;;;;78.25;24.83;;;;;;;0.10;100.00;97647.94;4500035;31;20084;-72
2021/12/05 06:58:01;;;;;;;99.68;26.12;;;;;;;0.25;100.00;97653.87;4500444;31;20096;-72
2021/12/05 07:00:29;;;;;;;66.97;22.90;;;;;;;0.26;100.00;97663.22;4499849;31;20152;-72
2021/12/05 07:02:58;;;;;;;89.68;27.10;;;;;;;0.32;100.00;97668.00;4499979;31;20133;-72
2021/12/05 07:05:50;;;;;;;82.60;23.92;;;;;;;0.40;100.00;97670.06;4500091;31;20099;-72
2021/12/05 07:08:19;;;;;;;67.93;25.85;;;;;;;0.48;100.00;97675.53;4499954;31;20145;-72
2021/12/05 07:11:23;;;;;;;72.68;25.10;;;;;;;0.55;100.00;97668.25;4499824;31;20122;-72
2021/12/05 07:16:37;;;;;;;70.35;25.08;;;;;;;0.40;100.00;97664.91;4499758;31;20084;-72
2021/12/05 07:21:56;;;;;;;64.25;24.30;;;;;;;0.79;100.00;97660.59;4499503;31;20126;-72
2021/12/05 07:40:32;;;;;;;71.40;24.80;;;;;;;1.52;100.00;97683.13;4501798;31;20092;-73
2021/12/05 07:43:03;;;;;;;56.80;22.98;;;;;;;1.50;100.00;97687.56;4501795;31;20096;-73
2021/12/05 07:45:40;;;;;;;60.10;23.17;;;;;;;1.59;100.00;97694.66;4501873;31;20106;-73
2021/12/05 07:48:13;;;;;;;55.25;22.83;;;;;;;1.64;100.00;97693.53;4501761;31;20350;-73
2021/12/05 07:50:53;;;;;;;58.60;22.58;;;;;;;1.43;100.00;97686.34;4501795;31;20080;-73
2021/12/05 07:53:26;;;;;;;66.95;23.45;;;;;;;1.34;100.00;97685.22;4501809;31;20151;-73
2021/12/05 07:55:58;;;;;;;60.75;24.00;;;;;;;1.42;100.00;97685.53;4501733;31;20102;-73
2021/12/05 08:01:23;;;;;;;65.35;24.37;;;;;;;1.32;100.00;97701.75;4501795;31;20123;-73
2021/12/05 08:15:09;;;;;;;65.93;24.95;;;;;;;1.59;100.00;97697.25;4501722;31;20366;-74
2021/12/05 08:17:37;;;;;;;73.65;23.75;;;;;;;1.57;100.00;97699.09;4501464;31;20084;-73
2021/12/05 08:20:07;;;;;;;67.47;24.00;;;;;;;1.56;100.00;97700.03;4501520;31;20115;-73
2021/12/05 08:22:34;;;;;;;69.57;24.65;;;;;;;1.63;100.00;97695.28;4492922;31;20124;-74
2021/12/05 08:25:09;;;;;;;75.25;25.08;;;;;;;1.55;100.00;97688.06;4485595;31;20474;-73
2021/12/05 08:27:44;;;;;;;92.00;27.02;;;;;;;1.55;99.91;97698.38;4486094;31;20080;-73
2021/12/05 08:30:18;;;;;;;68.65;24.85;;;;;;;1.64;99.49;97706.44;4501272;31;20080;-73
2021/12/05 08:43:45;;;;;;;70.80;26.65;;;;;;;1.68;99.36;97697.53;4467532;32;20125;-73
2021/12/05 10:02:48;;;;;;;64.30;25.25;;;;;;;1.71;98.90;97659.44;4485335;31;20453;-73
2021/12/05 10:11:13;;;;;;;73.05;26.15;;;;;;;2.01;98.09;97650.41;4485091;31;20088;-73
2021/12/05 10:20:41;;;;;;;;;;;;;;;2.18;96.97;97648.34;4451546;32;20178;-73
2021/12/05 10:36:14;;;;;;;70.62;24.77;;;;;;;1.81;99.06;97633.75;4450924;32;20104;-73
2021/12/05 10:38:47;;;;;;;69.60;24.77;;;;;;;1.71;99.88;97643.09;4450880;32;20116;-73
2021/12/05 10:44:07;;;;;;;56.47;24.30;;;;;;;1.73;99.53;97636.09;4450841;32;20105;-73
2021/12/05 10:46:35;;;;;;;71.90;25.02;;;;;;;1.88;99.08;97627.22;4450810;32;20658;-73
2021/12/05 10:49:06;;;;;;;57.20;23.92;;;;;;;1.86;98.01;97626.53;4450361;32;20156;-73
2021/12/05 10:51:42;;;;;;;60.67;25.17;;;;;;;1.91;98.89;97626.19;4478056;32;20145;-73
2021/12/05 10:54:11;;;;;;;71.43;27.73;;;;;;;1.81;98.87;97630.37;4485109;31;20088;-73
2021/12/05 10:56:41;;;;;;;59.17;23.83;;;;;;;1.88;98.65;97622.06;4486353;31;20119;-73
2021/12/05 10:59:29;;;;;;;66.70;24.23;;;;;;;1.82;99.27;97625.09;4486241;31;20092;-73
2021/12/05 11:02:00;;;;;;;59.58;24.25;;;;;;;2.11;97.92;97625.53;4486389;31;20084;-74
2021/12/05 11:04:34;;;;;;;58.42;22.42;;;;;;;2.13;97.78;97621.09;4486367;31;20116;-74
2021/12/05 11:07:02;;;;;;;57.62;22.15;;;;;;;1.98;97.96;97616.22;4486229;31;20483;-74
2021/12/05 11:09:32;;;;;;;58.58;22.48;;;;;;;2.11;97.39;97622.16;4486262;31;20416;-73
2021/12/05 11:12:14;;;;;;;53.28;21.33;;;;;;;1.94;97.49;97616.44;4486149;31;20081;-73
2021/12/05 11:14:48;;;;;;;55.25;21.45;;;;;;;1.84;98.83;97620.63;4486160;31;20168;-74
2021/12/05 11:17:21;;;;;;;55.03;21.30;;;;;;;1.95;98.03;97619.84;4486184;31;20076;-73
2021/12/05 11:20:00;;;;;;;57.17;21.37;;;;;;;1.81;98.46;97622.63;4486059;31;20495;-73
2021/12/05 11:22:29;;;;;;;52.50;21.55;;;;;;;1.80;99.15;97629.53;4494285;31;20103;-73
2021/12/05 11:25:00;;;;;;;57.20;21.62;;;;;;;1.78;98.97;97627.03;4501945;31;20110;-73
2021/12/05 11:27:31;;;;;;;49.47;19.52;;;;;;;1.73;99.39;97636.09;4502046;31;20462;-73
2021/12/05 11:30:10;;;;;;;53.85;21.20;;;;;;;1.68;99.45;97618.34;4486457;31;20092;-73
2021/12/05 11:33:02;;;;;;;52.22;19.77;;;;;;;1.72;99.27;97611.19;4485924;32;20092;-73
2021/12/05 11:35:36;;;;;;;51.67;20.83;;;;;;;1.78;99.37;97618.50;4485937;31;20100;-74
2021/12/05 11:38:06;;;;;;;43.87;20.00;;;;;;;1.86;98.64;97623.94;4486303;32;20115;-73
2021/12/05 11:40:42;;;;;;;53.65;20.45;;;;;;;1.77;99.08;97619.41;4486200;31;20496;-74
2021/12/05 11:43:16;;;;;;;54.67;21.05;;;;;;;1.71;99.10;97610.38;4485965;32;20072;-73
2021/12/05 11:46:02;;;;;;;62.30;20.62;;;;;;;1.81;98.86;97620.84;4485910;31;20155;-73
2021/12/05 11:48:36;;;;;;;57.45;20.55;;;;;;;1.85;98.56;97618.88;4485853;31;20095;-73
2021/12/05 11:51:25;;;;;;;52.60;21.58;;;;;;;1.88;99.00;97619.47;4485913;31;20155;-74
2021/12/05 11:54:12;;;;;;;53.63;21.23;;;;;;;1.66;99.45;97615.03;4485851;31;20408;-74
2021/12/05 11:57:00;;;;;;;52.22;21.27;;;;;;;1.74;99.72;97614.47;4436575;32;20152;-73
2021/12/05 11:59:37;;;;;;;56.53;23.17;;;;;;;1.61;99.49;97613.72;4436629;32;20518;-73
2021/12/05 12:02:27;;;;;;;62.88;22.60;;;;;;;1.65;100.00;97617.72;4436702;32;20549;-74
2021/12/05 12:05:02;;;;;;;66.60;23.55;;;;;;;1.60;100.00;97615.47;4436223;32;20116;-73
2021/12/05 12:07:43;;;;;;;51.80;21.42;;;;;;;1.57;100.00;97601.00;4436795;32;20132;-74
2021/12/05 12:10:20;;;;;;;69.50;24.73;;;;;;;1.49;100.00;97611.06;4436536;32;20483;-74
2021/12/05 12:12:52;;;;;;;57.85;21.35;;;;;;;1.35;100.00;97631.88;4436654;32;20147;-73
2021/12/05 12:15:21;;;;;;;58.25;20.62;;;;;;;1.14;100.00;97636.78;4436391;32;20160;-73
2021/12/05 12:17:50;;;;;;;60.90;22.80;;;;;;;1.01;100.00;97626.47;4436337;32;20153;-73
2021/12/05 12:20:24;;;;;;;49.40;20.00;;;;;;;0.96;100.00;97628.53;4436375;32;20141;-73
2021/12/05 12:22:53;;;;;;;55.78;21.83;;;;;;;1.12;100.00;97623.97;4436504;32;20164;-73
2021/12/05 12:25:28;;;;;;;56.97;20.83;;;;;;;1.07;100.00;97626.03;4436432;32;20105;-73
2021/12/05 12:27:56;;;;;;;57.95;22.42;;;;;;;1.00;100.00;97635.97;4434488;32;20546;-73
2021/12/05 12:30:27;;;;;;;53.17;19.37;;;;;;;1.04;100.00;97632.22;4421104;32;20105;-73
2021/12/05 12:33:08;;;;;;;48.10;18.35;;;;;;;1.03;100.00;97629.75;4428308;32;20213;-73
2021/12/05 12:35:37;;;;;;;51.60;18.87;;;;;;;1.04;100.00;97608.19;4485633;31;20104;-73
2021/12/05 12:38:18;;;;;;;55.63;19.48;;;;;;;1.06;100.00;97609.75;4485719;32;20141;-73
2021/12/05 12:41:03;;;;;;;51.85;18.35;;;;;;;0.90;100.00;97598.03;4485812;31;20088;-73
2021/12/05 12:43:48;;;;;;;;;;;;;;;0.99;100.00;97598.19;4486081;31;20088;-73
2021/12/05 12:46:31;;;;;;;42.55;15.98;;;;;;;0.95;100.00;97595.94;4485617;31;19992;-73
2021/12/05 12:49:14;;;;;;;50.38;18.10;;;;;;;0.79;100.00;97606.47;4485451;31;20119;-73
2021/12/05 12:51:41;;;;;;;50.88;18.00;;;;;;;0.79;100.00;97621.94;4485612;32;20092;-73
2021/12/05 12:54:14;;;;;;;47.83;18.08;;;;;;;0.86;100.00;97623.16;4485479;31;20131;-73
2021/12/05 12:56:58;;;;;;;49.33;18.27;;;;;;;0.83;100.00;97611.34;4485908;31;20332;-73
2021/12/05 12:59:30;;;;;;;39.63;16.00;;;;;;;0.81;100.00;97600.28;4484224;32;20526;-73
2021/12/05 13:10:42;;;;;;;40.80;16.42;;;;;;;0.78;100.00;97577.28;4485541;32;20089;-73
2021/12/05 13:13:20;;;;;;;;;;;;;;;0.77;100.00;97578.22;4479996;32;20127;-73
2021/12/05 13:15:57;;;;;;;36.83;14.82;;;;;;;0.78;100.00;97579.88;4484824;31;20052;-73
2021/12/05 13:18:30;;;;;;;36.70;15.90;;;;;;;0.69;100.00;97577.94;4485259;31;20106;-73
2021/12/05 13:21:10;;;;;;;38.50;15.40;;;;;;;0.63;100.00;97570.59;4485592;31;20430;-73
2021/12/05 13:23:45;;;;;;;45.20;16.95;;;;;;;0.77;100.00;97559.34;4500923;31;20165;-73
2021/12/05 13:26:34;;;;;;;36.95;15.35;;;;;;;0.76;100.00;97566.28;4500949;31;20080;-73
2021/12/05 13:29:15;;;;;;;43.40;15.30;;;;;;;0.66;100.00;97554.94;4491754;31;20438;-73
2021/12/05 13:31:49;;;;;;;40.60;16.80;;;;;;;0.68;100.00;97553.06;4485072;31;20140;-73
2021/12/05 13:34:55;;;;;;;52.78;15.80;;;;;;;0.63;100.00;97548.22;4485156;31;20224;-73
2021/12/05 13:37:33;;;;;;;38.28;15.63;;;;;;;0.65;100.00;97535.25;4435880;32;20180;-73
2021/12/05 13:40:08;;;;;;;45.00;17.02;;;;;;;0.76;100.00;97531.91;4436138;32;20479;-73
2021/12/05 13:42:41;;;;;;;38.38;15.68;;;;;;;0.81;100.00;97522.94;4436133;32;20164;-73
2021/12/05 13:45:21;;;;;;;42.50;15.10;;;;;;;1.04;100.00;97511.00;4436172;32;20109;-73
2021/12/05 13:47:51;;;;;;;43.03;16.08;;;;;;;1.24;100.00;97519.94;4435818;32;20176;-73
2021/12/05 13:50:18;;;;;;;43.65;15.63;;;;;;;1.42;100.00;97532.44;4435960;32;20093;-73
2021/12/05 13:52:49;;;;;;;40.25;15.82;;;;;;;1.41;100.00;97536.78;4435768;32;20159;-73
2021/12/05 13:55:40;;;;;;;41.15;15.73;;;;;;;1.33;100.00;97546.00;4435955;32;20101;-73
2021/12/05 13:58:26;;;;;;;41.45;15.55;;;;;;;1.27;100.00;97549.00;4435987;32;20184;-73
2021/12/05 14:01:03;;;;;;;42.65;17.60;;;;;;;1.29;100.00;97547.13;4435830;32;20224;-73
2021/12/05 14:03:45;;;;;;;46.47;17.23;;;;;;;0.98;100.00;97563.00;4435788;32;20156;-73
2021/12/05 14:06:43;;;;;;;75.28;19.08;;;;;;;0.93;100.00;97569.44;4435955;32;20105;-73
2021/12/05 14:09:24;;;;;;;81.82;18.37;;;;;;;0.90;100.00;97578.22;4435903;32;20199;-73
2021/12/05 14:12:13;;;;;;;94.53;20.37;;;;;;;0.50;100.00;97571.44;4469382;32;20080;-73
2021/12/05 14:14:53;;;;;;;118.70;21.55;;;;;;;0.43;100.00;97577.94;4484923;31;20454;-73
2021/12/05 14:17:28;;;;;;;68.68;19.62;;;;;;;0.55;100.00;97572.91;4484878;31;20075;-73
2021/12/05 14:19:57;;;;;;;108.07;23.15;;;;;;;0.46;100.00;97570.00;4484676;31;20076;-73
2021/12/05 14:22:29;;;;;;;117.85;20.40;;;;;;;0.42;100.00;97563.41;4492506;31;20096;-73
2021/12/05 14:24:59;;;;;;;126.25;23.23;;;;;;;0.50;100.00;97568.88;4500536;31;20096;-73
2021/12/05 14:27:31;;;;;;;167.10;23.60;;;;;;;0.57;100.00;97574.41;4500254;31;20087;-73
2021/12/05 14:30:00;;;;;;;126.93;22.90;;;;;;;0.46;100.00;97570.00;4484744;31;20529;-73
2021/12/05 14:32:32;;;;;;;128.70;22.52;;;;;;;0.36;100.00;97579.25;4484162;31;20088;-73
2021/12/05 14:35:04;;;;;;;85.68;21.30;;;;;;;0.30;100.00;97580.53;4484703;31;20101;-73
2021/12/05 14:37:33;;;;;;;106.37;18.80;;;;;;;0.38;100.00;97585.16;4484527;31;20119;-73
2021/12/05 14:40:05;;;;;;;162.43;22.37;;;;;;;0.26;100.00;97588.53;4484625;31;20093;-73
2021/12/05 14:42:34;;;;;;;137.20;21.67;;;;;;;0.24;100.00;97586.06;4484426;32;20098;-73
2021/12/05 14:45:05;;;;;;;121.35;21.70;;;;;;;0.31;100.00;97595.03;4484618;31;20119;-73
2021/12/05 14:47:35;;;;;;;146.60;21.27;;;;;;;0.19;100.00;97587.31;4484569;31;20076;-73
2021/12/05 14:50:11;;;;;;;180.27;22.83;;;;;;;0.18;100.00;97591.63;4484354;31;20147;-73
2021/12/05 14:52:41;;;;;;;137.15;21.65;;;;;;;0.22;100.00;97577.63;4484246;31;20072;-73
2021/12/05 14:55:11;;;;;;;145.07;24.27;;;;;;;0.15;100.00;97577.22;4484320;31;20621;-73
2021/12/05 14:57:45;;;;;;;115.88;22.77;;;;;;;0.13;100.00;97584.19;4484300;31;20495;-73
2021/12/05 15:00:24;;;;;;;150.93;21.67;;;;;;;0.04;100.00;97586.56;4484122;32;20080;-73
2021/12/05 15:03:03;;;;;;;114.80;17.52;;;;;;;0.09;100.00;97581.91;4484353;31;20460;-73
2021/12/05 15:05:32;;;;;;;130.85;21.23;;;;;;;0.13;100.00;97584.19;4484245;31;20496;-73
2021/12/05 15:08:08;;;;;;;118.87;20.02;;;;;;;0.07;100.00;97583.78;4484101;31;20442;-73
2021/12/05 15:10:35;;;;;;;94.97;23.15;;;;;;;0.01;100.00;97590.16;4484115;31;20115;-73
2021/12/05 15:13:03;;;;;;;142.73;21.52;;;;;;;0.07;100.00;97584.59;4483832;31;20088;-73
2021/12/05 15:15:31;;;;;;;139.77;23.50;;;;;;;0.09;100.00;97584.50;4483961;31;20546;-73
2021/12/05 15:17:58;;;;;;;161.85;22.73;;;;;;;0.15;100.00;97579.78;4482593;32;20181;-73
2021/12/05 15:20:28;;;;;;;131.25;21.62;;;;;;;0.12;100.00;97574.00;4484236;31;20126;-73
2021/12/05 15:23:01;;;;;;;128.55;22.48;;;;;;;0.09;100.00;97569.87;4494615;31;20137;-73
2021/12/05 15:25:32;;;;;;;224.20;25.10;;;;;;;-0.01;100.00;97581.72;4499660;31;20149;-73
2021/12/05 15:28:01;;;;;;;170.48;23.58;;;;;;;0.03;100.00;97579.75;4496942;31;20442;-73
2021/12/05 15:30:31;;;;;;;185.05;23.15;;;;;;;0.06;100.00;97567.53;4483799;31;20122;-73
2021/12/05 15:33:03;;;;;;;268.40;28.62;;;;;;;0.02;100.00;97557.53;4483677;32;20159;-72
2021/12/05 15:35:32;;;;;;;213.52;22.20;;;;;;;-0.09;100.00;97559.03;4483879;32;20088;-73
2021/12/05 15:38:09;;;;;;;170.12;21.95;;;;;;;-0.03;100.00;97560.38;4483936;31;20473;-73
2021/12/05 15:40:44;;;;;;;250.18;24.60;;;;;;;-0.04;100.00;97566.47;4485308;31;20163;-73
2021/12/05 15:43:14;;;;;;;197.65;25.92;;;;;;;-0.10;100.00;97562.53;4486068;32;20080;-73
2021/12/05 15:45:43;;;;;;;212.57;25.62;;;;;;;-0.12;100.00;97558.41;4485846;31;20085;-73
2021/12/05 15:48:10;;;;;;;233.85;26.02;;;;;;;-0.15;100.00;97562.03;4485964;31;20244;-73
2021/12/05 15:50:39;;;;;;;252.85;27.00;;;;;;;-0.11;100.00;97565.22;4486040;31;20160;-73
2021/12/05 15:53:10;;;;;;;213.48;26.98;;;;;;;-0.11;100.00;97576.31;4486004;31;20438;-73
2021/12/05 15:55:43;;;;;;;215.55;23.25;;;;;;;-0.10;100.00;97572.84;4485904;31;20453;-73
2021/12/05 15:58:23;;;;;;;217.40;24.00;;;;;;;-0.06;100.00;97594.88;4486035;31;20111;-73
2021/12/05 16:01:13;;;;;;;175.18;21.08;;;;;;;-0.03;100.00;97589.53;4485936;31;20110;-73
2021/12/05 16:03:53;;;;;;;282.60;26.40;;;;;;;0.00;100.00;97591.09;4485900;31;20080;-73
2021/12/05 16:06:31;;;;;;;274.42;28.52;;;;;;;0.02;100.00;97591.00;4485795;31;21006;-73
2021/12/05 16:09:13;;;;;;;192.65;22.02;;;;;;;-0.07;100.00;97594.97;4485759;31;20466;-73
2021/12/05 16:11:40;;;;;;;224.40;26.45;;;;;;;-0.06;100.00;97594.03;4485866;31;20092;-73
2021/12/05 16:14:08;;;;;;;126.68;19.65;;;;;;;-0.10;100.00;97579.75;4485615;32;20084;-73
2021/12/05 16:16:35;;;;;;;173.20;23.85;;;;;;;-0.07;100.00;97576.97;4485656;31;20089;-73
2021/12/05 16:19:09;;;;;;;208.98;26.50;;;;;;;0.00;100.00;97583.38;4485465;31;20123;-73
2021/12/05 16:21:38;;;;;;;159.90;24.53;;;;;;;-0.05;100.00;97593.13;4488106;31;20480;-73
2021/12/05 16:24:10;;;;;;;184.32;23.30;;;;;;;-0.02;100.00;97593.75;4501323;31;20202;-73
2021/12/05 16:26:38;;;;;;;152.48;21.15;;;;;;;0.03;100.00;97593.47;4500558;31;20116;-73
2021/12/05 16:29:11;;;;;;;148.25;25.65;;;;;;;0.05;100.00;97606.25;4491671;31;20132;-73
2021/12/05 16:31:40;;;;;;;131.02;21.40;;;;;;;0.07;100.00;97625.78;4485664;31;20542;-73
2021/12/05 16:34:14;;;;;;;109.63;22.83;;;;;;;0.21;100.00;97629.22;4485466;31;20106;-73
2021/12/05 16:37:02;;;;;;;149.32;23.52;;;;;;;0.29;100.00;97650.97;4485875;31;20136;-73
2021/12/05 16:39:36;;;;;;;119.40;23.62;;;;;;;0.24;100.00;97632.41;4485670;32;20092;-73
2021/12/05 16:42:10;;;;;;;107.17;24.10;;;;;;;0.17;100.00;97618.31;4485642;31;20103;-73
2021/12/05 16:44:49;;;;;;;147.75;22.77;;;;;;;0.25;100.00;97617.81;4485576;31;20542;-73
2021/12/05 16:47:19;;;;;;;113.88;20.10;;;;;;;0.17;100.00;97621.69;4485590;32;20088;-73
2021/12/05 16:49:51;;;;;;;101.10;21.45;;;;;;;0.14;100.00;97627.06;4485388;31;20089;-73
2021/12/05 16:52:21;;;;;;;107.12;21.02;;;;;;;0.21;100.00;97619.72;4485542;32;20095;-73
2021/12/05 16:55:10;;;;;;;84.97;20.50;;;;;;;0.21;100.00;97626.66;4485381;32;20185;-73
2021/12/05 16:57:51;;;;;;;81.55;19.80;;;;;;;0.20;100.00;97643.03;4485816;31;20119;-73
2021/12/05 17:00:22;;;;;;;109.93;21.80;;;;;;;0.43;100.00;97655.22;4485350;31;20093;-73
2021/12/05 17:02:59;;;;;;;73.35;18.42;;;;;;;0.27;100.00;97637.41;4485551;31;20164;-73
2021/12/05 17:05:28;;;;;;;;;;;;;;;0.34;100.00;97643.78;4484431;32;20106;-73
2021/12/05 17:08:12;;;;;;;49.20;16.92;;;;;;;0.33;100.00;97644.72;4485492;31;20337;-73
2021/12/05 17:10:44;;;;;;;52.78;16.08;;;;;;;0.43;100.00;97657.81;4485398;31;20115;-73
2021/12/05 17:13:33;;;;;;;49.20;16.85;;;;;;;0.45;100.00;97661.09;4485340;31;20107;-73
2021/12/05 17:16:14;;;;;;;55.25;17.52;;;;;;;0.50;100.00;97664.22;4485208;31;20382;-73